This is the latest recevied weather packets stored in our database for station/object SP5IZJ-2. If no packets are shown the sender has not sent any weather packets the latest 10 day(s).
| Time | Temp. | Humidity | Pressure | Rain* | Wind** | Luminosity | Snow |
|---|---|---|---|---|---|---|---|
| 1777451459 | 6.67° C | 49% | 1021.3 hPa | 0 mm | - | - | - |
| 1777451039 | 6.67° C | 47% | 1021 hPa | 0 mm | - | - | - |
| 1777450619 | 6.67° C | 46% | 1021 hPa | 0 mm | - | - | - |
| 1777450207 | 6.67° C | 44% | 1020.9 hPa | 0 mm | - | - | - |
| 1777449779 | 7.22° C | 45% | 1021.1 hPa | 0 mm | - | - | - |
| 1777449364 | 6.67° C | 47% | 1021 hPa | 0 mm | - | - | - |
| 1777448940 | 6.11° C | 47% | 1020.6 hPa | 0 mm | - | - | - |
| 1777448101 | 5.56° C | 47% | 1020.8 hPa | 0 mm | - | - | - |
| 1777447681 | 5.56° C | 48% | 1020.6 hPa | 0 mm | - | - | - |
| 1777447261 | 5° C | 47% | 1020.7 hPa | 0 mm | - | - | - |
| 1777446845 | 5.56° C | 47% | 1020.6 hPa | 0 mm | - | - | - |
| 1777446421 | 6.11° C | 46% | 1020.5 hPa | 0 mm | - | - | - |
| 1777446012 | 7.22° C | 44% | 1020.4 hPa | 0 mm | - | - | - |
| 1777445582 | 6.67° C | 50% | 1020.4 hPa | 0 mm | - | - | - |
| 1777444337 | 4.44° C | 51% | 1020.5 hPa | 0 mm | - | - | - |
| 1777443062 | 7.22° C | 48% | 1020.3 hPa | 0 mm | - | - | - |
| 1777442642 | 7.22° C | 50% | 1020.5 hPa | 0 mm | - | - | - |
| 1777442223 | 7.22° C | 50% | 1020.6 hPa | 0 mm | - | - | - |
| 1777441383 | 6.67° C | 54% | 1020.3 hPa | 0 mm | - | - | - |
| 1777440963 | 6.11° C | 54% | 1020.2 hPa | 0 mm | - | - | - |
| 1777440551 | 6.11° C | 55% | 1020.2 hPa | 0 mm | - | - | - |
| 1777440127 | 5.56° C | 56% | 1020.2 hPa | 0 mm | - | - | - |
| 1777439719 | 5° C | 58% | 1020.1 hPa | 0 mm | - | - | - |
| 1777439292 | 4.44° C | 59% | 1020.2 hPa | 0 mm | - | - | - |
| 1777438864 | 3.89° C | 61% | 1020 hPa | 0 mm | - | - | - |
* Rain latest hour (hover to see other rain measurements)
** Current wind speed in m/s (hover to see current wind gust speed)